Durham, North Carolina
Current Conditions -  °F | °C
As of 9:56 AM on Friday 24 Oct 2014 (Local Time) from KIGX Reporting Station
Clear Clear  
Wind Chill: 55°   Ceiling: Unl
Heat Index: 55°   Visibility: 10mi
Dew Point: 42°   Wind: 0mph
Humidity: 62%   Direction: NA
Pressure: 30.07"   Gusts: NA
Location:  36°N, 78.9°W
Report Text: KIGX 241356Z AUTO 00000KT 10SM CLR 13/06 A3007 RMK AO2 SLP181 T01280056
Loading
Personal Weather Stations






























Interactive Weather Map
Tropical Storm Tracking
New forecast layout! Learn more

10-Day Weather Forecast

Advertisements
Track Severe Weather on mobile